createdAt,value
2019-05-25T00:02:02.894Z,12.86
2019-05-25T00:04:29.964Z,12.84
2019-05-25T00:06:57.056Z,12.83
2019-05-25T00:09:24.129Z,12.81
2019-05-25T00:11:51.221Z,12.79
2019-05-25T00:14:18.298Z,12.75
2019-05-25T00:16:45.379Z,12.71
2019-05-25T00:19:12.437Z,12.68
2019-05-25T00:21:41.151Z,12.66
2019-05-25T00:24:12.049Z,12.61
2019-05-25T00:26:37.193Z,12.61
2019-05-25T00:29:04.240Z,12.62
2019-05-25T00:31:31.332Z,12.62
2019-05-25T00:33:58.377Z,12.62
2019-05-25T00:36:25.457Z,12.63
2019-05-25T00:38:52.521Z,12.62
2019-05-25T00:41:19.647Z,12.62
2019-05-25T00:43:46.691Z,12.56
2019-05-25T00:46:13.787Z,12.54
2019-05-25T00:48:40.858Z,12.53
2019-05-25T00:51:07.958Z,12.52
2019-05-25T00:53:35.015Z,12.48
2019-05-25T00:56:02.086Z,12.48
2019-05-25T00:58:29.148Z,12.44
2019-05-25T01:00:56.298Z,12.42
2019-05-25T01:03:23.337Z,12.45
2019-05-25T01:05:50.406Z,12.46
2019-05-25T01:08:17.478Z,12.46
2019-05-25T01:10:44.585Z,12.42
2019-05-25T01:13:11.660Z,12.38
2019-05-25T01:15:38.776Z,12.36
2019-05-25T01:18:05.812Z,12.36
2019-05-25T01:20:32.872Z,12.36
2019-05-25T01:22:59.958Z,12.36
2019-05-25T01:25:27.168Z,12.34
2019-05-25T01:27:54.226Z,12.31
2019-05-25T01:30:22.805Z,12.25
2019-05-25T01:32:49.880Z,12.22
2019-05-25T01:35:16.951Z,12.21
2019-05-25T01:37:44.035Z,12.19
2019-05-25T01:40:15.080Z,12.15
2019-05-25T01:42:42.176Z,12.12
2019-05-25T01:45:09.354Z,12.10
2019-05-25T01:47:36.402Z,12.07
2019-05-25T01:50:03.564Z,12.05
2019-05-25T01:52:30.648Z,12.02
2019-05-25T01:55:00.165Z,11.99
2019-05-25T01:57:26.740Z,11.94
2019-05-25T01:59:53.828Z,11.89
2019-05-25T02:02:20.910Z,11.84
2019-05-25T02:04:47.941Z,11.78
2019-05-25T02:07:15.031Z,11.71
2019-05-25T02:09:42.120Z,11.70
2019-05-25T02:12:09.177Z,11.68
2019-05-25T02:14:36.253Z,11.66
2019-05-25T02:17:03.468Z,11.65
2019-05-25T02:19:30.540Z,11.64
2019-05-25T02:21:57.621Z,11.60
2019-05-25T02:24:24.688Z,11.58
2019-05-25T02:26:51.777Z,11.56
2019-05-25T02:29:19.010Z,11.52
2019-05-25T02:31:46.103Z,11.47
2019-05-25T02:34:13.150Z,11.43
2019-05-25T02:36:40.240Z,11.43
2019-05-25T02:39:07.363Z,11.40
2019-05-25T02:41:34.568Z,11.35
2019-05-25T02:44:01.791Z,11.32
2019-05-25T02:46:28.895Z,11.27
2019-05-25T02:48:55.946Z,11.24
2019-05-25T02:51:23.043Z,11.21
2019-05-25T02:53:50.116Z,11.18
2019-05-25T02:56:17.220Z,11.16
2019-05-25T02:58:44.347Z,11.13
2019-05-25T03:01:11.411Z,11.06
2019-05-25T03:03:38.492Z,11.00
2019-05-25T03:06:05.691Z,10.99
2019-05-25T03:08:33.250Z,10.98
2019-05-25T03:11:00.332Z,10.96
2019-05-25T03:13:30.799Z,10.96
2019-05-25T03:15:57.892Z,10.93
2019-05-25T03:18:24.977Z,10.90
2019-05-25T03:20:52.070Z,10.85
2019-05-25T03:23:19.171Z,10.79
2019-05-25T03:25:49.610Z,10.73
2019-05-25T03:28:15.209Z,10.68
2019-05-25T03:30:42.316Z,10.66
2019-05-25T03:33:09.418Z,10.67
2019-05-25T03:35:36.463Z,10.68
2019-05-25T03:38:03.602Z,10.71
2019-05-25T03:40:30.619Z,10.71
2019-05-25T03:42:57.695Z,10.75
2019-05-25T03:45:24.773Z,10.74
2019-05-25T03:47:51.833Z,10.73
2019-05-25T03:50:18.995Z,10.71
2019-05-25T03:52:46.189Z,10.72
2019-05-25T03:55:14.911Z,10.74
2019-05-25T03:57:42.001Z,10.77
2019-05-25T04:00:09.306Z,10.81
2019-05-25T04:02:36.379Z,10.89
2019-05-25T04:05:03.763Z,10.94
2019-05-25T04:07:30.848Z,10.95
2019-05-25T04:09:57.921Z,10.98
2019-05-25T04:12:25.007Z,11.01
2019-05-25T04:14:52.063Z,11.06
2019-05-25T04:17:19.146Z,11.07
2019-05-25T04:19:46.265Z,11.06
2019-05-25T04:22:13.306Z,11.08
2019-05-25T04:24:40.417Z,11.13
2019-05-25T04:27:07.482Z,11.29
2019-05-25T04:29:34.558Z,11.47
2019-05-25T04:32:01.630Z,11.61
2019-05-25T04:34:28.669Z,11.73
2019-05-25T04:36:55.771Z,11.76
2019-05-25T04:39:22.853Z,11.79
2019-05-25T04:41:49.932Z,11.92
2019-05-25T04:44:17.009Z,11.99
2019-05-25T04:46:44.097Z,12.08
2019-05-25T04:49:11.191Z,12.17
2019-05-25T04:51:38.270Z,12.24
2019-05-25T04:54:05.351Z,12.22
2019-05-25T04:56:39.324Z,12.21
2019-05-25T04:59:01.450Z,12.45
2019-05-25T05:01:28.521Z,12.70
2019-05-25T05:03:55.637Z,12.79
2019-05-25T05:06:22.695Z,12.88
2019-05-25T05:08:49.773Z,13.07
2019-05-25T05:11:16.837Z,13.22
2019-05-25T05:13:43.917Z,13.31
2019-05-25T05:16:11.013Z,13.49
2019-05-25T05:18:38.075Z,13.62
2019-05-25T05:21:05.164Z,13.74
2019-05-25T05:23:32.257Z,13.80
2019-05-25T05:25:59.344Z,13.90
2019-05-25T05:28:26.389Z,14.01
2019-05-25T05:30:53.485Z,14.17
2019-05-25T05:33:20.610Z,14.31
2019-05-25T05:35:48.297Z,14.47
2019-05-25T05:38:15.526Z,14.61
2019-05-25T05:40:42.607Z,14.61
2019-05-25T05:43:10.645Z,14.79
2019-05-25T05:45:40.363Z,14.89
2019-05-25T05:48:09.450Z,14.92
2019-05-25T05:50:37.247Z,14.92
2019-05-25T05:53:04.319Z,15.04
2019-05-25T05:55:31.889Z,15.18
2019-05-25T05:57:59.252Z,15.24
2019-05-25T06:00:26.338Z,15.32
2019-05-25T06:02:53.427Z,15.35
2019-05-25T06:05:20.523Z,15.43
2019-05-25T06:07:47.643Z,15.42
2019-05-25T06:10:17.566Z,15.44
2019-05-25T06:12:44.655Z,15.47
2019-05-25T06:15:12.086Z,15.50
2019-05-25T06:17:39.138Z,15.54
2019-05-25T06:20:07.175Z,15.61
2019-05-25T06:22:34.251Z,15.64
2019-05-25T06:25:01.340Z,15.68
2019-05-25T06:27:28.439Z,15.75
2019-05-25T06:29:55.533Z,15.85
2019-05-25T06:32:22.620Z,15.93
2019-05-25T06:34:49.681Z,16.01
2019-05-25T06:37:16.723Z,16.11
2019-05-25T06:39:43.827Z,16.22
2019-05-25T06:42:10.905Z,16.35
2019-05-25T06:44:38.005Z,16.47
2019-05-25T06:47:05.057Z,16.58
2019-05-25T06:49:32.132Z,16.69
2019-05-25T06:51:59.221Z,16.77
2019-05-25T06:54:26.331Z,16.85
2019-05-25T06:56:53.358Z,16.91
2019-05-25T06:59:20.444Z,17.01
2019-05-25T07:01:47.507Z,17.07
2019-05-25T07:04:14.596Z,17.10
2019-05-25T07:06:41.660Z,17.20
2019-05-25T07:09:08.735Z,17.20
2019-05-25T07:11:35.847Z,17.23
2019-05-25T07:14:03.025Z,17.34
2019-05-25T07:16:30.099Z,17.44
2019-05-25T07:18:57.332Z,17.47
2019-05-25T07:21:24.427Z,17.55
2019-05-25T07:23:51.473Z,17.68
2019-05-25T07:26:18.564Z,17.72
2019-05-25T07:28:45.619Z,17.81
2019-05-25T07:31:12.705Z,17.84
2019-05-25T07:33:39.751Z,17.90
2019-05-25T07:36:07.701Z,17.96
2019-05-25T07:38:35.106Z,18.04
2019-05-25T07:41:02.189Z,18.15
2019-05-25T07:43:29.234Z,18.23
2019-05-25T07:45:56.293Z,18.33
2019-05-25T07:48:23.354Z,18.38
2019-05-25T07:50:50.431Z,18.50
2019-05-25T07:53:17.542Z,18.65
2019-05-25T07:55:44.618Z,18.70
2019-05-25T07:58:17.377Z,18.74
2019-05-25T08:00:51.068Z,18.78
2019-05-25T08:03:18.173Z,18.88
2019-05-25T08:05:45.296Z,18.98
2019-05-25T08:08:12.388Z,19.07
2019-05-25T08:10:39.520Z,19.10
2019-05-25T08:13:06.733Z,19.17
2019-05-25T08:15:33.850Z,19.31
2019-05-25T08:18:00.975Z,19.43
2019-05-25T08:20:28.038Z,19.43
2019-05-25T08:22:55.157Z,19.48
2019-05-25T08:25:22.295Z,19.63
2019-05-25T08:27:49.386Z,19.82
2019-05-25T08:30:16.820Z,19.92
2019-05-25T08:32:43.890Z,20.09
2019-05-25T08:35:11.112Z,20.23
2019-05-25T08:37:38.194Z,20.37
2019-05-25T08:40:46.155Z,20.50
2019-05-25T08:43:13.224Z,20.51
2019-05-25T08:45:40.321Z,20.53
2019-05-25T08:48:07.389Z,20.49
2019-05-25T08:50:38.327Z,20.51
2019-05-25T08:53:03.437Z,20.53
2019-05-25T08:55:30.518Z,20.47
2019-05-25T08:57:57.591Z,20.54
2019-05-25T09:00:24.779Z,20.76
2019-05-25T09:02:51.906Z,20.89
2019-05-25T09:05:18.934Z,20.88
2019-05-25T09:07:46.026Z,21.04
2019-05-25T09:10:16.748Z,21.20
2019-05-25T09:12:43.824Z,21.36
2019-05-25T09:15:11.318Z,21.37
2019-05-25T09:17:38.394Z,21.42
2019-05-25T09:20:05.640Z,21.49
2019-05-25T09:22:32.736Z,21.75
2019-05-25T09:24:59.845Z,21.89
2019-05-25T09:27:26.939Z,21.98
2019-05-25T09:29:54.004Z,22.14
2019-05-25T09:32:21.121Z,22.37
2019-05-25T09:34:48.208Z,22.49
2019-05-25T09:37:15.261Z,22.56
2019-05-25T09:39:42.326Z,22.70
2019-05-25T09:42:09.393Z,22.86
2019-05-25T09:44:36.466Z,23.01
2019-05-25T09:47:03.533Z,22.95
2019-05-25T09:49:30.609Z,22.75
2019-05-25T09:51:57.720Z,22.66
2019-05-25T09:54:24.852Z,22.58
2019-05-25T09:56:51.950Z,22.78
2019-05-25T09:59:20.429Z,23.07
2019-05-25T10:01:47.756Z,23.37
2019-05-25T10:04:14.834Z,23.60
2019-05-25T10:06:41.916Z,23.80
2019-05-25T10:09:08.973Z,24.03
2019-05-25T10:11:36.048Z,24.36
2019-05-25T10:14:03.182Z,24.69
2019-05-25T10:16:30.249Z,25.04
2019-05-25T10:18:57.325Z,25.59
2019-05-25T10:21:24.416Z,25.66
2019-05-25T10:23:51.508Z,25.90
2019-05-25T10:26:18.579Z,26.20
2019-05-25T10:28:45.682Z,26.15
2019-05-25T10:31:12.768Z,26.00
2019-05-25T10:33:39.957Z,25.81
2019-05-25T10:36:07.072Z,25.80
2019-05-25T10:38:34.171Z,25.58
2019-05-25T10:41:01.331Z,25.76
2019-05-25T10:43:28.430Z,26.20
2019-05-25T10:45:55.484Z,26.37
2019-05-25T10:48:22.579Z,26.31
2019-05-25T10:50:49.662Z,26.49
2019-05-25T10:53:16.751Z,26.33
2019-05-25T10:55:43.847Z,26.20
2019-05-25T10:58:10.927Z,26.45
2019-05-25T11:00:38.013Z,26.72
2019-05-25T11:03:05.103Z,27.05
2019-05-25T11:05:32.239Z,26.74
2019-05-25T11:07:59.353Z,26.30
2019-05-25T11:10:26.435Z,26.30
2019-05-25T11:12:53.539Z,26.51
2019-05-25T11:15:20.646Z,26.99
2019-05-25T11:17:47.784Z,27.29
2019-05-25T11:20:15.884Z,27.40
2019-05-25T11:22:42.974Z,27.35
2019-05-25T11:25:15.385Z,27.38
2019-05-25T11:27:42.463Z,27.56
2019-05-25T11:30:30.855Z,27.67
2019-05-25T11:32:57.961Z,27.94
2019-05-25T11:35:25.055Z,27.84
2019-05-25T11:37:52.170Z,28.17
2019-05-25T11:43:20.215Z,29.47
2019-05-25T11:45:47.324Z,29.50
2019-05-25T11:48:14.430Z,29.87
2019-05-25T11:50:41.523Z,30.15
2019-05-25T11:53:08.616Z,30.59
2019-05-25T11:55:35.709Z,30.66
2019-05-25T11:58:02.773Z,31.09
2019-05-25T12:00:29.862Z,31.48
2019-05-25T12:02:56.918Z,31.91
2019-05-25T12:05:24.019Z,32.11
2019-05-25T12:07:51.190Z,31.89
2019-05-25T12:10:18.937Z,31.36
2019-05-25T12:12:46.036Z,30.27
2019-05-25T12:15:13.332Z,29.26
2019-05-25T12:17:40.403Z,28.32
2019-05-25T12:20:28.792Z,27.87
2019-05-25T12:22:55.890Z,27.98
2019-05-25T12:25:23.059Z,28.57
2019-05-25T12:27:50.120Z,28.37
2019-05-25T12:33:19.190Z,27.27
2019-05-25T12:35:46.300Z,27.65
2019-05-25T12:38:13.395Z,28.39
2019-05-25T12:40:53.263Z,28.88
2019-05-25T12:43:16.307Z,29.20
2019-05-25T12:45:43.384Z,28.97
2019-05-25T12:48:10.464Z,29.50
2019-05-25T12:50:37.534Z,29.73
2019-05-25T12:53:04.673Z,29.73
2019-05-25T12:55:31.782Z,29.58
2019-05-25T12:57:58.883Z,29.90
2019-05-25T13:00:25.979Z,29.88
2019-05-25T13:02:53.056Z,29.80
2019-05-25T13:05:33.070Z,29.53
2019-05-25T13:07:49.091Z,29.08
2019-05-25T13:10:17.274Z,28.37
2019-05-25T13:12:44.359Z,28.29
2019-05-25T13:15:11.628Z,28.11
2019-05-25T13:17:38.678Z,28.07
2019-05-25T13:20:05.801Z,27.91
2019-05-25T13:22:32.904Z,27.66
2019-05-25T13:24:59.980Z,27.39
2019-05-25T13:27:27.060Z,27.38
2019-05-25T13:29:54.212Z,27.20
2019-05-25T13:32:21.290Z,27.20
2019-05-25T13:34:48.393Z,27.23
2019-05-25T13:37:17.765Z,26.58
2019-05-25T13:39:50.887Z,26.37
2019-05-25T13:42:18.051Z,25.87
2019-05-25T13:44:45.143Z,26.23
2019-05-25T13:47:12.234Z,26.75
2019-05-25T13:49:39.338Z,27.15
2019-05-25T13:52:06.416Z,27.23
2019-05-25T13:54:33.527Z,27.29
2019-05-25T13:57:00.604Z,27.23
2019-05-25T13:59:27.682Z,26.98
2019-05-25T14:01:54.769Z,26.49
2019-05-25T14:04:21.892Z,26.14
2019-05-25T14:06:48.966Z,25.70
2019-05-25T14:09:16.169Z,25.42
2019-05-25T14:11:43.314Z,25.06
2019-05-25T14:14:10.417Z,24.79
2019-05-25T14:16:37.489Z,24.51
2019-05-25T14:19:04.617Z,24.28
2019-05-25T14:21:31.774Z,24.23
2019-05-25T14:23:58.877Z,24.13
2019-05-25T14:26:25.957Z,24.07
2019-05-25T14:28:53.015Z,23.93
2019-05-25T14:31:20.117Z,23.82
2019-05-25T14:33:47.225Z,23.68
2019-05-25T14:36:14.292Z,23.58
2019-05-25T14:38:41.387Z,23.49
2019-05-25T14:41:08.483Z,23.49
2019-05-25T14:43:35.544Z,23.44
2019-05-25T14:46:02.638Z,23.24
2019-05-25T14:48:29.804Z,23.03
2019-05-25T14:50:56.852Z,22.84
2019-05-25T14:53:23.921Z,22.66
2019-05-25T14:55:50.998Z,22.72
2019-05-25T14:58:18.094Z,22.73
2019-05-25T15:00:45.332Z,22.72
2019-05-25T15:03:12.366Z,22.72
2019-05-25T15:05:39.449Z,22.72
2019-05-25T15:08:06.499Z,22.64
2019-05-25T15:10:33.576Z,22.62
2019-05-25T15:13:00.677Z,22.62
2019-05-25T15:15:27.718Z,22.50
2019-05-25T15:17:54.782Z,22.38
2019-05-25T15:20:21.830Z,22.36
2019-05-25T15:22:48.918Z,22.33
2019-05-25T15:25:18.088Z,22.16
2019-05-25T15:27:45.187Z,21.92
2019-05-25T15:30:12.368Z,21.81
2019-05-25T15:32:39.462Z,21.76
2019-05-25T15:35:06.732Z,21.64
2019-05-25T15:37:33.811Z,21.53
2019-05-25T15:40:00.895Z,21.42
2019-05-25T15:42:28.639Z,21.32
2019-05-25T15:44:55.711Z,21.15
2019-05-25T15:47:22.775Z,21.08
2019-05-25T15:49:49.849Z,21.00
2019-05-25T15:52:16.928Z,20.89
2019-05-25T15:54:43.986Z,20.78
2019-05-25T15:57:11.072Z,20.73
2019-05-25T15:59:38.149Z,20.69
2019-05-25T16:02:05.430Z,20.66
2019-05-25T16:04:32.605Z,20.58
2019-05-25T16:06:59.665Z,20.44
2019-05-25T16:09:26.711Z,20.35
2019-05-25T16:11:53.796Z,20.22
2019-05-25T16:14:20.896Z,20.10
2019-05-25T16:16:47.993Z,19.97
2019-05-25T16:19:15.092Z,19.91
2019-05-25T16:21:42.196Z,19.85
2019-05-25T16:24:09.329Z,19.77
2019-05-25T16:26:45.394Z,19.63
2019-05-25T16:29:05.375Z,19.49
2019-05-25T16:31:32.455Z,19.29
2019-05-25T16:33:59.537Z,19.12
2019-05-25T16:36:26.619Z,18.96
2019-05-25T16:38:53.703Z,18.84
2019-05-25T16:41:20.857Z,18.81
2019-05-25T16:43:48.019Z,18.80
2019-05-25T16:46:15.111Z,18.78
2019-05-25T16:48:42.195Z,18.75
2019-05-25T16:51:09.338Z,18.66
2019-05-25T16:53:36.418Z,18.57
2019-05-25T16:56:03.545Z,18.49
2019-05-25T16:58:30.649Z,18.40
2019-05-25T17:00:58.101Z,18.32
2019-05-25T17:03:28.655Z,18.23
2019-05-25T17:05:54.203Z,18.07
2019-05-25T17:08:21.295Z,17.84
2019-05-25T17:10:48.384Z,17.62
2019-05-25T17:13:15.473Z,17.50
2019-05-25T17:15:42.569Z,17.36
2019-05-25T17:18:09.652Z,17.33
2019-05-25T17:20:36.723Z,17.34
2019-05-25T17:23:03.781Z,17.38
2019-05-25T17:25:30.918Z,17.41
2019-05-25T17:27:57.990Z,17.43
2019-05-25T17:30:37.468Z,17.37
2019-05-25T17:33:04.984Z,17.24
2019-05-25T17:35:32.092Z,17.15
2019-05-25T17:37:59.155Z,17.11
2019-05-25T17:40:26.280Z,17.11
2019-05-25T17:42:53.379Z,17.12
2019-05-25T17:45:20.483Z,17.13
2019-05-25T17:47:47.622Z,17.11
2019-05-25T17:50:14.661Z,17.09
2019-05-25T17:52:41.842Z,17.05
2019-05-25T17:55:13.283Z,16.99
2019-05-25T17:57:40.572Z,16.89
2019-05-25T18:00:08.064Z,16.77
2019-05-25T18:02:35.276Z,16.75
2019-05-25T18:05:02.387Z,16.70
2019-05-25T18:07:29.509Z,16.54
2019-05-25T18:09:56.563Z,16.41
2019-05-25T18:12:24.470Z,16.29
2019-05-25T18:14:51.539Z,16.20
2019-05-25T18:17:18.630Z,16.10
2019-05-25T18:19:45.759Z,16.00
2019-05-25T18:22:12.864Z,15.91
2019-05-25T18:24:42.531Z,15.84
2019-05-25T18:27:09.672Z,15.74
2019-05-25T18:29:36.745Z,15.61
2019-05-25T18:32:03.992Z,15.53
2019-05-25T18:34:31.040Z,15.47
2019-05-25T18:36:58.121Z,15.39
2019-05-25T18:39:25.199Z,15.37
2019-05-25T18:41:52.304Z,15.37
2019-05-25T18:44:19.447Z,15.37
2019-05-25T18:46:46.561Z,15.35
2019-05-25T18:49:13.647Z,15.33
2019-05-25T18:51:40.768Z,15.33
2019-05-25T18:54:07.832Z,15.36
2019-05-25T18:56:34.928Z,15.37
2019-05-25T18:59:02.054Z,15.34
2019-05-25T19:01:29.127Z,15.34
2019-05-25T19:03:56.246Z,15.37
2019-05-25T19:06:23.322Z,15.41
2019-05-25T19:08:50.430Z,15.37
2019-05-25T19:11:17.524Z,15.33
2019-05-25T19:13:44.717Z,15.29
2019-05-25T19:16:11.887Z,15.24
2019-05-25T19:18:38.966Z,15.21
2019-05-25T19:21:06.082Z,15.23
2019-05-25T19:23:33.174Z,15.16
2019-05-25T19:26:00.301Z,15.15
2019-05-25T19:28:27.403Z,15.17
2019-05-25T19:30:54.534Z,15.22
2019-05-25T19:33:21.635Z,15.23
2019-05-25T19:35:48.719Z,15.22
2019-05-25T19:38:15.836Z,15.18
2019-05-25T19:40:42.921Z,15.06
2019-05-25T19:43:10.036Z,15.01
2019-05-25T19:45:37.124Z,15.01
2019-05-25T19:48:04.339Z,14.96
2019-05-25T19:50:31.425Z,14.93
2019-05-25T19:52:58.526Z,14.93
2019-05-25T19:55:25.943Z,14.95
2019-05-25T19:57:53.116Z,14.90
2019-05-25T20:00:20.321Z,14.87
2019-05-25T20:02:47.417Z,14.77
2019-05-25T20:05:16.994Z,14.74
2019-05-25T20:07:43.772Z,14.74
2019-05-25T20:10:15.054Z,14.68
2019-05-25T20:12:42.286Z,14.68
2019-05-25T20:15:09.669Z,14.73
2019-05-25T20:17:36.746Z,14.65
2019-05-25T20:20:04.242Z,14.65
2019-05-25T20:22:31.315Z,14.68
2019-05-25T20:24:58.418Z,14.67
2019-05-25T20:27:25.514Z,14.68
2019-05-25T20:29:52.648Z,14.74
2019-05-25T20:32:19.930Z,14.74
2019-05-25T20:34:47.005Z,14.76
2019-05-25T20:37:14.077Z,14.75
2019-05-25T20:39:53.948Z,14.79
2019-05-25T20:42:33.961Z,14.83
2019-05-25T20:45:01.082Z,14.83
2019-05-25T20:47:47.618Z,14.84
2019-05-25T20:50:14.839Z,14.84
2019-05-25T20:52:41.957Z,14.84
2019-05-25T20:55:13.467Z,14.81
2019-05-25T20:57:40.739Z,14.81
2019-05-25T21:00:07.951Z,14.86
2019-05-25T21:02:35.031Z,14.84
2019-05-25T21:05:02.142Z,14.82
2019-05-25T21:07:29.211Z,14.82
2019-05-25T21:09:56.295Z,14.78
2019-05-25T21:12:23.439Z,14.69
2019-05-25T21:14:50.573Z,14.70
2019-05-25T21:17:17.673Z,14.69
2019-05-25T21:19:44.748Z,14.69
2019-05-25T21:22:11.824Z,14.71
2019-05-25T21:24:38.939Z,14.69
2019-05-25T21:27:06.028Z,14.64
2019-05-25T21:29:33.116Z,14.64
2019-05-25T21:32:00.171Z,14.56
2019-05-25T21:34:27.308Z,14.57
2019-05-25T21:36:54.439Z,14.57
2019-05-25T21:39:21.543Z,14.57
2019-05-25T21:41:48.646Z,14.53
2019-05-25T21:44:15.743Z,14.54
2019-05-25T21:46:42.822Z,14.54
2019-05-25T21:49:09.910Z,14.52
2019-05-25T21:51:37.032Z,14.46
2019-05-25T21:54:04.149Z,14.44
2019-05-25T21:56:31.242Z,14.44
2019-05-25T21:58:58.327Z,14.43
2019-05-25T22:01:25.459Z,14.36
2019-05-25T22:03:52.540Z,14.36
2019-05-25T22:06:24.305Z,14.33
2019-05-25T22:08:48.611Z,14.28
2019-05-25T22:11:15.685Z,14.31
2019-05-25T22:13:42.778Z,14.30
2019-05-25T22:16:09.867Z,14.30
2019-05-25T22:18:36.961Z,14.28
2019-05-25T22:21:04.021Z,14.19
2019-05-25T22:23:31.076Z,14.25
2019-05-25T22:25:58.161Z,14.25
2019-05-25T22:28:25.269Z,14.25
2019-05-25T22:30:52.372Z,14.21
2019-05-25T22:33:19.452Z,14.18
2019-05-25T22:35:46.575Z,14.18
2019-05-25T22:38:13.667Z,14.17
2019-05-25T22:40:40.970Z,14.19
2019-05-25T22:43:08.023Z,14.17
2019-05-25T22:45:35.108Z,14.10
2019-05-25T22:48:02.191Z,14.15
2019-05-25T22:50:29.249Z,14.15
2019-05-25T22:52:56.353Z,14.10
2019-05-25T22:55:23.417Z,14.10
2019-05-25T22:57:50.495Z,14.09
2019-05-25T23:00:17.601Z,14.04
2019-05-25T23:02:44.740Z,13.98
2019-05-25T23:05:13.265Z,13.98
2019-05-25T23:07:40.359Z,13.98
2019-05-25T23:10:08.139Z,13.90
2019-05-25T23:12:35.244Z,13.90
2019-05-25T23:15:02.648Z,13.89
2019-05-25T23:17:29.751Z,13.88
2019-05-25T23:19:56.843Z,13.81
2019-05-25T23:22:23.921Z,13.81
2019-05-25T23:24:51.209Z,13.79
2019-05-25T23:27:18.429Z,13.77
2019-05-25T23:29:45.495Z,13.77
2019-05-25T23:32:12.582Z,13.74
2019-05-25T23:34:39.674Z,13.72
2019-05-25T23:37:14.630Z,13.72
2019-05-25T23:39:35.764Z,13.71
2019-05-25T23:42:02.854Z,13.72
2019-05-25T23:44:29.915Z,13.69
2019-05-25T23:46:57.037Z,13.68
2019-05-25T23:49:24.134Z,13.66
2019-05-25T23:51:51.196Z,13.64
2019-05-25T23:54:18.299Z,13.63
2019-05-25T23:56:45.365Z,13.63
2019-05-25T23:59:12.478Z,13.63
